Time;durP1;ratioP1;P1;durP2;ratioP2;P2;SDS_P1;SDS_P2;PMS_P1;PMS_P2;Temp;Humidity;BMP_temperature;BMP_pressure;BME280_temperature;BME280_humidity;BME280_pressure;Samples;Min_cycle;Max_cycle;Signal;HPM_P1;HPM_P2
2023/05/24 00:01:50;;;;;;;8.03;6.60;;;;;;;;;;5018216;28;20453;-83
2023/05/24 00:04:17;;;;;;;8.17;6.70;;;;;;;;;;5024195;28;20447;-84
2023/05/24 00:06:43;;;;;;;29.40;26.47;;;;;;;;;;5018309;28;20437;-85
2023/05/24 00:09:11;;;;;;;8.90;6.67;;;;;;;;;;5019637;28;20498;-84
2023/05/24 00:11:37;;;;;;;37.97;34.27;;;;;;;;;;5017666;28;20443;-83
2023/05/24 00:14:03;;;;;;;13.80;7.97;;;;;;;;;;5032227;28;20458;-85
2023/05/24 00:16:29;;;;;;;16.73;6.70;;;;;;;;;;5017419;28;20432;-83
2023/05/24 00:18:57;;;;;;;9.83;8.50;;;;;;;;;;5025878;28;20471;-84
2023/05/24 00:21:23;;;;;;;7.57;6.90;;;;;;;;;;5024119;28;20496;-83
2023/05/24 00:23:50;;;;;;;9.17;5.70;;;;;;;;;;5016872;28;20411;-83
2023/05/24 00:26:16;;;;;;;11.13;6.77;;;;;;;;;;5029224;28;20423;-84
2023/05/24 00:28:42;;;;;;;7.73;7.03;;;;;;;;;;5030665;28;20961;-82
2023/05/24 00:31:08;;;;;;;26.47;23.70;;;;;;;;;;4992829;28;20431;-82
2023/05/24 00:33:34;;;;;;;12.87;8.47;;;;;;;;;;5019045;28;20471;-83
2023/05/24 00:36:00;;;;;;;22.63;18.87;;;;;;;;;;5028035;28;20941;-84
2023/05/24 00:38:26;;;;;;;12.53;10.60;;;;;;;;;;5029285;28;20430;-84
2023/05/24 00:40:55;;;;;;;10.60;9.70;;;;;;;;;;5020086;28;20584;-83
2023/05/24 00:43:21;;;;;;;6.57;5.80;;;;;;;;;;5000982;28;20841;-83
2023/05/24 00:45:47;;;;;;;9.80;5.57;;;;;;;;;;5033239;28;20419;-82
2023/05/24 00:48:13;;;;;;;7.90;6.33;;;;;;;;;;5046469;28;20459;-82
2023/05/24 00:50:40;;;;;;;5.70;3.97;;;;;;;;;;5024436;28;20474;-83
2023/05/24 00:53:06;;;;;;;7.63;6.43;;;;;;;;;;5026395;28;20462;-83
2023/05/24 00:55:35;;;;;;;9.47;4.83;;;;;;;;;;5050537;28;20421;-83
2023/05/24 00:58:01;;;;;;;8.37;6.97;;;;;;;;;;5044224;28;20423;-82
2023/05/24 01:00:28;;;;;;;8.00;4.83;;;;;;;;;;5030564;28;20449;-83
2023/05/24 01:02:55;;;;;;;5.43;4.83;;;;;;;;;;5015374;28;20448;-83
2023/05/24 01:05:22;;;;;;;7.53;6.83;;;;;;;;;;5032971;28;20944;-83
2023/05/24 01:07:52;;;;;;;6.37;5.97;;;;;;;;;;5021741;28;20506;-84
2023/05/24 01:10:29;;;;;;;6.03;5.00;;;;;;;;;;5030479;28;20446;-83
2023/05/24 01:13:01;;;;;;;11.10;7.73;;;;;;;;;;5028568;28;20501;-83
2023/05/24 01:15:50;;;;;;;10.87;6.40;;;;;;;;;;5025321;28;20431;-83
2023/05/24 01:18:20;;;;;;;8.20;6.60;;;;;;;;;;5033816;28;20455;-81
2023/05/24 01:20:48;;;;;;;7.00;5.40;;;;;;;;;;5039039;28;20458;-83
2023/05/24 01:23:20;;;;;;;6.60;5.83;;;;;;;;;;5038855;28;20423;-82
2023/05/24 01:25:55;;;;;;;25.27;22.60;;;;;;;;;;5012499;28;20536;-82
2023/05/24 01:28:21;;;;;;;7.93;4.97;;;;;;;;;;5032897;28;20470;-82
2023/05/24 01:30:48;;;;;;;5.13;4.63;;;;;;;;;;5013444;28;20651;-82
2023/05/24 01:33:14;;;;;;;17.23;6.60;;;;;;;;;;5026254;28;21222;-81
2023/05/24 01:35:41;;;;;;;7.87;5.63;;;;;;;;;;5007712;28;20446;-80
2023/05/24 01:38:07;;;;;;;5.43;5.23;;;;;;;;;;5034749;28;20417;-82
2023/05/24 01:40:34;;;;;;;5.80;4.50;;;;;;;;;;5032965;28;20428;-83
2023/05/24 01:43:13;;;;;;;6.70;5.60;;;;;;;;;;5028957;28;20433;-82
2023/05/24 01:45:57;;;;;;;7.83;4.73;;;;;;;;;;4992142;28;20420;-83
2023/05/24 01:48:42;;;;;;;5.13;4.63;;;;;;;;;;4994515;28;21269;-82
2023/05/24 01:51:10;;;;;;;11.80;6.20;;;;;;;;;;5036520;28;20426;-84
2023/05/24 01:53:41;;;;;;;6.83;6.20;;;;;;;;;;5044770;28;20434;-81
2023/05/24 01:56:07;;;;;;;10.50;8.10;;;;;;;;;;5009521;28;20423;-82
2023/05/24 01:58:34;;;;;;;7.30;5.37;;;;;;;;;;5032672;28;20446;-82
2023/05/24 02:01:00;;;;;;;8.07;5.60;;;;;;;;;;5014685;28;20435;-83
2023/05/24 02:03:26;;;;;;;7.27;5.83;;;;;;;;;;5026260;28;20411;-83
2023/05/24 02:05:52;;;;;;;9.20;7.93;;;;;;;;;;5016683;28;20981;-83
2023/05/24 02:08:18;;;;;;;9.60;7.53;;;;;;;;;;5020563;28;20462;-82
2023/05/24 02:10:44;;;;;;;26.00;23.03;;;;;;;;;;5017053;28;20431;-82
2023/05/24 02:13:10;;;;;;;16.67;8.30;;;;;;;;;;5019006;28;20971;-82
2023/05/24 02:15:36;;;;;;;11.43;8.50;;;;;;;;;;5027774;28;20462;-82
2023/05/24 02:18:02;;;;;;;12.70;11.00;;;;;;;;;;5013379;28;20474;-81
2023/05/24 02:20:35;;;;;;;105.07;95.67;;;;;;;;;;5015199;28;20430;-81
2023/05/24 02:23:02;;;;;;;113.43;102.73;;;;;;;;;;4998909;28;20423;-82
2023/05/24 02:25:28;;;;;;;95.87;87.80;;;;;;;;;;5024469;28;20438;-82
2023/05/24 02:27:55;;;;;;;62.63;57.33;;;;;;;;;;5010738;28;20462;-82
2023/05/24 02:30:21;;;;;;;13.80;12.57;;;;;;;;;;5008939;28;20990;-82
2023/05/24 02:32:47;;;;;;;74.97;69.37;;;;;;;;;;4991531;28;20429;-83
2023/05/24 02:35:13;;;;;;;19.07;17.43;;;;;;;;;;5008662;28;21047;-82
2023/05/24 02:37:39;;;;;;;13.83;11.33;;;;;;;;;;5018177;28;20548;-82
2023/05/24 02:40:05;;;;;;;55.77;51.27;;;;;;;;;;5034352;28;20461;-81
2023/05/24 02:42:31;;;;;;;54.47;49.27;;;;;;;;;;5035217;28;20457;-82
2023/05/24 02:44:57;;;;;;;7.37;6.80;;;;;;;;;;5015185;28;20434;-83
2023/05/24 02:47:25;;;;;;;8.50;7.60;;;;;;;;;;5020706;28;20533;-83
2023/05/24 02:49:51;;;;;;;50.83;47.23;;;;;;;;;;5010610;28;20436;-83
2023/05/24 02:52:20;;;;;;;40.80;37.50;;;;;;;;;;5013966;28;20937;-83
2023/05/24 02:54:46;;;;;;;30.50;28.50;;;;;;;;;;5026750;28;20439;-82
2023/05/24 02:57:12;;;;;;;17.30;15.60;;;;;;;;;;5016809;28;20449;-83
2023/05/24 02:59:38;;;;;;;10.13;9.43;;;;;;;;;;5014743;28;20447;-82
2023/05/24 03:02:04;;;;;;;13.30;12.43;;;;;;;;;;5023052;28;20442;-82
2023/05/24 03:04:30;;;;;;;36.47;33.63;;;;;;;;;;5019745;28;20438;-82
2023/05/24 03:06:56;;;;;;;13.53;10.40;;;;;;;;;;5025199;28;20505;-83
2023/05/24 03:09:22;;;;;;;22.07;20.33;;;;;;;;;;5038555;28;20466;-82
2023/05/24 03:11:49;;;;;;;12.00;11.13;;;;;;;;;;5023848;28;20444;-82
2023/05/24 03:14:16;;;;;;;16.43;11.70;;;;;;;;;;5032924;28;20630;-82
2023/05/24 03:16:42;;;;;;;12.50;10.23;;;;;;;;;;4975612;28;1104305;-81
2023/05/24 03:19:08;;;;;;;23.57;11.60;;;;;;;;;;5001481;28;20423;-81
2023/05/24 03:21:34;;;;;;;9.60;8.70;;;;;;;;;;4992295;28;20451;-81
2023/05/24 03:24:00;;;;;;;10.17;9.30;;;;;;;;;;5003246;28;20510;-82
2023/05/24 03:26:26;;;;;;;27.97;26.10;;;;;;;;;;5005048;28;20441;-81
2023/05/24 03:28:53;;;;;;;11.30;10.17;;;;;;;;;;4990760;28;20476;-82
2023/05/24 03:31:25;;;;;;;11.53;9.83;;;;;;;;;;5003865;28;20506;-82
2023/05/24 03:33:51;;;;;;;42.70;38.83;;;;;;;;;;5030363;28;20399;-82
2023/05/24 03:36:17;;;;;;;39.57;36.93;;;;;;;;;;5030934;28;20451;-82
2023/05/24 03:38:43;;;;;;;20.87;10.73;;;;;;;;;;5036108;28;20407;-81
2023/05/24 03:41:10;;;;;;;20.50;15.80;;;;;;;;;;5010411;28;20424;-82
2023/05/24 03:43:36;;;;;;;8.57;7.80;;;;;;;;;;5022110;28;20462;-83
2023/05/24 03:46:02;;;;;;;38.70;35.07;;;;;;;;;;5017748;28;20424;-83
2023/05/24 03:48:28;;;;;;;9.60;8.90;;;;;;;;;;5012291;28;20452;-84
2023/05/24 03:50:54;;;;;;;25.77;22.60;;;;;;;;;;4999765;28;20427;-78
2023/05/24 03:53:20;;;;;;;10.33;9.20;;;;;;;;;;5007016;28;20396;-79
2023/05/24 03:55:46;;;;;;;10.30;9.23;;;;;;;;;;4978659;28;20472;-80
2023/05/24 03:58:12;;;;;;;13.13;11.33;;;;;;;;;;4986006;28;20448;-83
2023/05/24 04:00:38;;;;;;;9.80;8.20;;;;;;;;;;4991741;28;20425;-84
2023/05/24 04:03:07;;;;;;;10.87;7.83;;;;;;;;;;5002606;28;20452;-84
2023/05/24 04:05:34;;;;;;;9.67;8.87;;;;;;;;;;5000491;28;20503;-81
2023/05/24 04:08:00;;;;;;;10.30;9.30;;;;;;;;;;4988454;28;21589;-81
2023/05/24 04:10:26;;;;;;;34.90;32.20;;;;;;;;;;4993351;28;20447;-83
2023/05/24 04:12:55;;;;;;;87.07;77.90;;;;;;;;;;4994153;28;21016;-79
2023/05/24 04:15:21;;;;;;;107.70;97.20;;;;;;;;;;5009748;28;20455;-83
2023/05/24 04:17:53;;;;;;;89.80;81.13;;;;;;;;;;5020604;28;20475;-83
2023/05/24 04:20:19;;;;;;;67.37;61.73;;;;;;;;;;4985222;28;20418;-82
2023/05/24 04:22:45;;;;;;;93.27;85.10;;;;;;;;;;4996727;28;20515;-83
2023/05/24 04:25:11;;;;;;;39.17;36.57;;;;;;;;;;4999972;28;20705;-82
2023/05/24 04:27:37;;;;;;;79.70;73.47;;;;;;;;;;5001747;28;20532;-83
2023/05/24 04:30:04;;;;;;;86.67;79.33;;;;;;;;;;5003826;28;20439;-85
2023/05/24 04:32:30;;;;;;;108.57;97.67;;;;;;;;;;4990278;28;20445;-82
2023/05/24 04:34:56;;;;;;;106.30;96.10;;;;;;;;;;4994117;28;20440;-83
2023/05/24 04:37:23;;;;;;;80.03;73.50;;;;;;;;;;5012728;28;20454;-82
2023/05/24 04:39:50;;;;;;;71.17;65.87;;;;;;;;;;5006467;28;20466;-79
2023/05/24 04:42:16;;;;;;;69.17;63.97;;;;;;;;;;4995671;28;20794;-78
2023/05/24 04:44:43;;;;;;;52.73;48.90;;;;;;;;;;5005317;28;20427;-83
2023/05/24 04:47:09;;;;;;;30.47;28.37;;;;;;;;;;5007704;28;20521;-83
2023/05/24 04:49:36;;;;;;;42.27;39.17;;;;;;;;;;5012507;28;20463;-83
2023/05/24 04:52:02;;;;;;;60.40;56.13;;;;;;;;;;5000747;28;20424;-85
2023/05/24 04:54:28;;;;;;;76.10;70.80;;;;;;;;;;5018232;28;20431;-83
2023/05/24 04:56:54;;;;;;;24.37;22.10;;;;;;;;;;5002689;28;20539;-84
2023/05/24 04:59:20;;;;;;;16.50;13.50;;;;;;;;;;5012182;28;20835;-84
2023/05/24 05:01:47;;;;;;;16.93;14.27;;;;;;;;;;5003357;28;20436;-85
2023/05/24 05:04:13;;;;;;;24.27;22.13;;;;;;;;;;4996271;28;20456;-84
2023/05/24 05:06:39;;;;;;;19.93;18.23;;;;;;;;;;4985545;28;20450;-82
2023/05/24 05:09:09;;;;;;;92.00;85.50;;;;;;;;;;5005365;28;20550;-82
2023/05/24 05:11:35;;;;;;;44.50;41.70;;;;;;;;;;5001565;28;20447;-83
2023/05/24 05:14:01;;;;;;;35.50;33.20;;;;;;;;;;4987466;28;20421;-83
2023/05/24 05:16:27;;;;;;;28.87;26.50;;;;;;;;;;4996425;28;20954;-82
2023/05/24 05:18:54;;;;;;;58.07;53.10;;;;;;;;;;5001591;28;20468;-82
2023/05/24 05:21:20;;;;;;;32.40;30.00;;;;;;;;;;5002577;28;20493;-82
2023/05/24 05:23:46;;;;;;;32.60;30.40;;;;;;;;;;4989465;28;20520;-82
2023/05/24 05:26:15;;;;;;;55.47;51.87;;;;;;;;;;4986026;28;20526;-83
2023/05/24 05:28:41;;;;;;;53.53;49.63;;;;;;;;;;5012906;28;20467;-83
2023/05/24 05:31:07;;;;;;;62.17;57.07;;;;;;;;;;5009923;28;20432;-82
2023/05/24 05:33:40;;;;;;;52.23;48.33;;;;;;;;;;5024160;28;20407;-83
2023/05/24 05:36:06;;;;;;;46.77;43.70;;;;;;;;;;4991404;28;20746;-81
2023/05/24 05:38:32;;;;;;;32.97;30.43;;;;;;;;;;5014663;28;20435;-83
2023/05/24 05:40:58;;;;;;;22.87;20.87;;;;;;;;;;4987014;28;20966;-84
2023/05/24 05:43:24;;;;;;;29.40;27.60;;;;;;;;;;4996792;28;20432;-84
2023/05/24 05:45:50;;;;;;;27.23;25.03;;;;;;;;;;5008954;28;20474;-80
2023/05/24 05:48:16;;;;;;;12.90;11.40;;;;;;;;;;5012344;28;21003;-82
2023/05/24 05:50:42;;;;;;;15.50;13.93;;;;;;;;;;4992570;28;20477;-83
2023/05/24 05:53:08;;;;;;;13.80;12.57;;;;;;;;;;4985317;28;20435;-81
2023/05/24 05:55:34;;;;;;;79.43;74.73;;;;;;;;;;4992901;28;20439;-83
2023/05/24 05:58:01;;;;;;;57.97;54.27;;;;;;;;;;4995882;28;20431;-81
2023/05/24 06:00:27;;;;;;;71.97;66.77;;;;;;;;;;4999813;28;20435;-81
2023/05/24 06:02:53;;;;;;;34.13;31.80;;;;;;;;;;4983280;28;20419;-83
2023/05/24 06:05:19;;;;;;;79.90;72.60;;;;;;;;;;4999166;28;20836;-82
2023/05/24 06:07:46;;;;;;;20.47;19.10;;;;;;;;;;4997688;28;20492;-83
2023/05/24 06:10:12;;;;;;;74.60;67.23;;;;;;;;;;4997094;28;20432;-81
2023/05/24 06:12:39;;;;;;;24.03;19.83;;;;;;;;;;5009575;28;20432;-80
2023/05/24 06:15:05;;;;;;;25.03;22.20;;;;;;;;;;4983727;28;20421;-82
2023/05/24 06:17:33;;;;;;;22.50;18.40;;;;;;;;;;5015125;28;20874;-81
2023/05/24 06:19:59;;;;;;;18.33;16.17;;;;;;;;;;5014391;28;20421;-83
2023/05/24 06:22:29;;;;;;;21.40;17.93;;;;;;;;;;5006658;28;20427;-83
2023/05/24 06:24:55;;;;;;;14.07;12.97;;;;;;;;;;5017370;28;20523;-83
2023/05/24 06:27:21;;;;;;;19.93;17.90;;;;;;;;;;4991465;28;20738;-83
2023/05/24 06:29:47;;;;;;;16.70;13.30;;;;;;;;;;5019742;28;20597;-84
2023/05/24 06:32:13;;;;;;;23.23;18.00;;;;;;;;;;5018861;28;20461;-83
2023/05/24 06:34:40;;;;;;;12.33;11.17;;;;;;;;;;5010916;28;20509;-83
2023/05/24 06:37:09;;;;;;;16.47;14.67;;;;;;;;;;5016041;28;20438;-83
2023/05/24 06:39:35;;;;;;;14.37;9.53;;;;;;;;;;4997114;28;20478;-82
2023/05/24 06:42:01;;;;;;;15.67;11.00;;;;;;;;;;5017508;28;20446;-84
2023/05/24 06:44:33;;;;;;;17.00;11.90;;;;;;;;;;5015480;28;20441;-84
2023/05/24 06:46:59;;;;;;;17.10;11.83;;;;;;;;;;5011585;28;20505;-84
2023/05/24 06:49:25;;;;;;;21.73;13.07;;;;;;;;;;5010437;28;20793;-84
2023/05/24 06:51:51;;;;;;;18.57;16.00;;;;;;;;;;5023123;28;20450;-81
2023/05/24 06:54:18;;;;;;;19.80;13.53;;;;;;;;;;5015086;28;20451;-81
2023/05/24 06:56:44;;;;;;;18.67;9.40;;;;;;;;;;5010238;28;20511;-82
2023/05/24 06:59:10;;;;;;;13.20;11.20;;;;;;;;;;5007787;28;20993;-80
2023/05/24 07:01:41;;;;;;;18.50;11.67;;;;;;;;;;5005305;28;20490;-80
2023/05/24 07:04:07;;;;;;;16.97;10.37;;;;;;;;;;5006796;28;20748;-79
2023/05/24 07:06:33;;;;;;;15.20;11.37;;;;;;;;;;5009971;28;20840;-79
2023/05/24 07:09:00;;;;;;;13.93;12.27;;;;;;;;;;5003836;28;20501;-79
2023/05/24 07:11:27;;;;;;;18.37;16.50;;;;;;;;;;5015841;28;20434;-78
2023/05/24 07:13:53;;;;;;;13.33;11.93;;;;;;;;;;5007903;28;20875;-80
2023/05/24 07:16:19;;;;;;;12.90;10.73;;;;;;;;;;5009673;28;20813;-80
2023/05/24 07:18:45;;;;;;;12.17;10.63;;;;;;;;;;5008792;28;20451;-81
2023/05/24 07:21:11;;;;;;;10.97;8.43;;;;;;;;;;5013072;28;20447;-80
2023/05/24 07:23:37;;;;;;;13.50;8.67;;;;;;;;;;5018921;28;20442;-80
2023/05/24 07:26:04;;;;;;;12.63;9.90;;;;;;;;;;5017000;28;20436;-80
2023/05/24 07:28:30;;;;;;;14.17;9.40;;;;;;;;;;5031614;28;20463;-80
2023/05/24 07:30:56;;;;;;;12.17;8.13;;;;;;;;;;5031316;28;20454;-79
2023/05/24 07:33:22;;;;;;;16.17;11.10;;;;;;;;;;5021947;28;20430;-79
2023/05/24 07:35:52;;;;;;;14.13;8.53;;;;;;;;;;5016652;28;20435;-79
2023/05/24 07:38:18;;;;;;;23.43;11.20;;;;;;;;;;5014308;28;20443;-81
2023/05/24 07:40:44;;;;;;;15.73;10.60;;;;;;;;;;5006029;28;20459;-80
2023/05/24 07:43:10;;;;;;;17.93;10.50;;;;;;;;;;5021258;28;20442;-79
2023/05/24 07:45:36;;;;;;;11.83;10.40;;;;;;;;;;5025415;28;20446;-79
2023/05/24 07:48:02;;;;;;;18.97;9.57;;;;;;;;;;5015415;28;20514;-78
2023/05/24 07:50:28;;;;;;;13.23;11.90;;;;;;;;;;4992386;28;20482;-81
2023/05/24 07:52:56;;;;;;;17.83;10.00;;;;;;;;;;4999896;28;20771;-81
2023/05/24 07:55:22;;;;;;;13.37;12.07;;;;;;;;;;5012742;28;20437;-80
2023/05/24 07:57:48;;;;;;;13.63;12.20;;;;;;;;;;5008358;28;20427;-78
2023/05/24 08:00:15;;;;;;;16.37;14.23;;;;;;;;;;5006351;28;20431;-81
2023/05/24 08:02:41;;;;;;;12.47;10.43;;;;;;;;;;5015561;28;20843;-81
2023/05/24 08:05:09;;;;;;;17.70;16.03;;;;;;;;;;5006231;28;20482;-79
2023/05/24 08:07:35;;;;;;;20.07;15.07;;;;;;;;;;5007187;28;20403;-81
2023/05/24 08:10:01;;;;;;;14.70;9.77;;;;;;;;;;5005016;28;20427;-81
2023/05/24 08:12:29;;;;;;;12.57;8.70;;;;;;;;;;5014546;28;20471;-83
2023/05/24 08:14:55;;;;;;;36.83;33.03;;;;;;;;;;5012185;28;20435;-82
2023/05/24 08:17:21;;;;;;;18.10;12.50;;;;;;;;;;4995697;28;20451;-83
2023/05/24 08:19:47;;;;;;;39.90;33.53;;;;;;;;;;5005555;28;20427;-81
2023/05/24 08:22:14;;;;;;;18.43;11.33;;;;;;;;;;4998220;28;20794;-81
2023/05/24 08:24:41;;;;;;;29.60;24.53;;;;;;;;;;5000121;28;20777;-82
2023/05/24 08:27:07;;;;;;;12.53;10.20;;;;;;;;;;5012549;28;20422;-80
2023/05/24 08:29:33;;;;;;;13.40;8.80;;;;;;;;;;5006382;28;20490;-81
2023/05/24 08:31:59;;;;;;;15.63;11.73;;;;;;;;;;4995818;28;20456;-80
2023/05/24 08:34:27;;;;;;;15.30;12.53;;;;;;;;;;5004523;28;20451;-80
2023/05/24 08:36:53;;;;;;;11.80;10.70;;;;;;;;;;5006053;28;20431;-80
2023/05/24 08:39:20;;;;;;;12.10;10.07;;;;;;;;;;5009993;28;20435;-81
2023/05/24 08:41:46;;;;;;;16.30;14.90;;;;;;;;;;5007478;28;20438;-81
2023/05/24 08:44:12;;;;;;;15.77;14.20;;;;;;;;;;5019760;28;20450;-81
2023/05/24 08:46:38;;;;;;;19.27;17.57;;;;;;;;;;5002025;28;20450;-80
2023/05/24 08:49:06;;;;;;;13.30;12.10;;;;;;;;;;5006223;28;20470;-79
2023/05/24 08:51:33;;;;;;;13.00;11.70;;;;;;;;;;4999402;28;20586;-78
2023/05/24 08:54:00;;;;;;;20.40;12.70;;;;;;;;;;5014054;28;20446;-79
2023/05/24 08:56:30;;;;;;;12.80;11.60;;;;;;;;;;5007016;28;20451;-80
2023/05/24 08:58:56;;;;;;;12.90;10.80;;;;;;;;;;4999833;28;20837;-80
2023/05/24 09:01:23;;;;;;;14.23;12.80;;;;;;;;;;5006003;28;20825;-79
2023/05/24 09:03:50;;;;;;;12.07;10.97;;;;;;;;;;5017490;28;20533;-80
2023/05/24 09:06:17;;;;;;;9.60;8.63;;;;;;;;;;5008688;28;20614;-79
2023/05/24 09:08:44;;;;;;;15.17;10.83;;;;;;;;;;5004540;28;20554;-80
2023/05/24 09:11:10;;;;;;;13.17;11.77;;;;;;;;;;5006753;28;20436;-79
2023/05/24 09:13:36;;;;;;;13.77;10.70;;;;;;;;;;5005576;28;20449;-80
2023/05/24 09:16:02;;;;;;;15.53;10.73;;;;;;;;;;5007774;28;20554;-79
2023/05/24 09:21:00;;;;;;;9.17;6.00;;;;;;;;;;4993847;28;20483;-81
2023/05/24 09:23:26;;;;;;;7.47;5.10;;;;;;;;;;5006457;28;20515;-80
2023/05/24 09:25:52;;;;;;;8.60;7.50;;;;;;;;;;4997960;28;20888;-81
2023/05/24 09:28:19;;;;;;;12.23;8.60;;;;;;;;;;5005910;28;20521;-82
2023/05/24 09:30:46;;;;;;;30.37;26.70;;;;;;;;;;4994738;28;21265;-81
2023/05/24 09:33:12;;;;;;;10.20;8.60;;;;;;;;;;5004894;28;20555;-81
2023/05/24 09:35:42;;;;;;;10.77;9.50;;;;;;;;;;5002392;28;20426;-80
2023/05/24 09:38:17;;;;;;;7.97;6.80;;;;;;;;;;5006488;28;20427;-81
2023/05/24 09:40:43;;;;;;;34.60;28.23;;;;;;;;;;5002451;28;20505;-83
2023/05/24 09:43:09;;;;;;;8.90;8.07;;;;;;;;;;5008262;28;20419;-81
2023/05/24 09:45:41;;;;;;;6.80;5.67;;;;;;;;;;5006270;28;20420;-82
2023/05/24 09:48:11;;;;;;;7.97;7.37;;;;;;;;;;4986174;28;20469;-84
2023/05/24 09:50:37;;;;;;;7.30;6.37;;;;;;;;;;4994213;28;20445;-85
2023/05/24 09:53:03;;;;;;;8.83;6.10;;;;;;;;;;5000772;28;20448;-84
2023/05/24 09:55:29;;;;;;;8.30;6.97;;;;;;;;;;4991744;28;20433;-84
2023/05/24 09:58:11;;;;;;;6.27;5.67;;;;;;;;;;4987853;28;20684;-84
2023/05/24 10:00:40;;;;;;;7.17;6.50;;;;;;;;;;4986902;28;20424;-81
2023/05/24 10:03:09;;;;;;;9.13;6.80;;;;;;;;;;4991633;28;20496;-85
2023/05/24 10:05:36;;;;;;;10.50;6.57;;;;;;;;;;4991866;28;20531;-83
2023/05/24 10:08:05;;;;;;;10.00;7.63;;;;;;;;;;4991054;28;20467;-83
2023/05/24 10:10:32;;;;;;;8.83;6.30;;;;;;;;;;4987276;28;20440;-81
2023/05/24 10:13:00;;;;;;;7.77;6.27;;;;;;;;;;4986188;28;20860;-83
2023/05/24 10:15:26;;;;;;;6.60;5.83;;;;;;;;;;4991052;28;20459;-84
2023/05/24 10:17:53;;;;;;;6.70;6.00;;;;;;;;;;4986961;28;20420;-83
2023/05/24 10:20:19;;;;;;;7.10;6.33;;;;;;;;;;4992675;28;20886;-82
2023/05/24 10:22:47;;;;;;;9.67;8.30;;;;;;;;;;4982774;28;20429;-79
2023/05/24 10:25:16;;;;;;;12.30;8.10;;;;;;;;;;4980737;28;20498;-78
2023/05/24 10:27:44;;;;;;;8.53;7.23;;;;;;;;;;4979124;28;20440;-84
2023/05/24 10:30:14;;;;;;;14.33;9.43;;;;;;;;;;4989986;28;20448;-85
2023/05/24 10:32:41;;;;;;;8.93;6.20;;;;;;;;;;4976289;28;20456;-83
2023/05/24 10:35:10;;;;;;;7.57;6.27;;;;;;;;;;4990232;28;20854;-85
2023/05/24 10:37:36;;;;;;;10.20;7.53;;;;;;;;;;4989247;28;20440;-84
2023/05/24 10:40:03;;;;;;;6.83;5.70;;;;;;;;;;4992321;28;20487;-84
2023/05/24 10:42:31;;;;;;;6.63;6.03;;;;;;;;;;4993419;28;20425;-81
2023/05/24 10:44:57;;;;;;;7.80;6.17;;;;;;;;;;4992568;28;20428;-87
2023/05/24 10:47:27;;;;;;;6.23;5.63;;;;;;;;;;4996595;28;20543;-83
2023/05/24 10:49:58;;;;;;;6.17;5.63;;;;;;;;;;4988618;28;20487;-83
2023/05/24 10:52:34;;;;;;;6.30;5.33;;;;;;;;;;4998563;28;20448;-85
2023/05/24 10:55:03;;;;;;;5.20;4.80;;;;;;;;;;4997834;28;20458;-86
2023/05/24 10:57:32;;;;;;;4.73;4.20;;;;;;;;;;5005426;28;20428;-82
2023/05/24 11:00:18;;;;;;;7.47;6.70;;;;;;;;;;5011504;28;20436;-83
2023/05/24 11:02:48;;;;;;;16.47;6.60;;;;;;;;;;4998342;28;20432;-83
2023/05/24 11:05:14;;;;;;;8.67;6.63;;;;;;;;;;4993633;28;20447;-87
2023/05/24 11:07:44;;;;;;;7.50;5.80;;;;;;;;;;5000690;28;20439;-87
2023/05/24 11:10:14;;;;;;;9.30;7.03;;;;;;;;;;4985299;28;20447;-86
2023/05/24 11:12:41;;;;;;;8.10;6.37;;;;;;;;;;4992794;28;20466;-86
2023/05/24 11:15:08;;;;;;;8.33;5.30;;;;;;;;;;4995349;28;20431;-86
2023/05/24 11:17:54;;;;;;;8.63;7.77;;;;;;;;;;4987983;28;20970;-85
2023/05/24 11:20:20;;;;;;;15.20;7.30;;;;;;;;;;4990365;28;20555;-80
2023/05/24 11:22:47;;;;;;;9.00;6.67;;;;;;;;;;4983838;28;20562;-79
2023/05/24 11:25:13;;;;;;;15.20;6.90;;;;;;;;;;4987313;28;20580;-78
2023/05/24 11:27:45;;;;;;;9.57;6.70;;;;;;;;;;4995013;28;20456;-85
2023/05/24 11:30:12;;;;;;;12.50;6.90;;;;;;;;;;4998183;28;20499;-82
2023/05/24 11:32:41;;;;;;;7.20;6.60;;;;;;;;;;4997615;28;20432;-83
2023/05/24 11:35:10;;;;;;;9.80;6.07;;;;;;;;;;5002479;28;20436;-85
2023/05/24 11:37:39;;;;;;;9.70;6.00;;;;;;;;;;5001893;28;20440;-83
2023/05/24 11:40:08;;;;;;;7.07;5.30;;;;;;;;;;4988556;28;20765;-85
2023/05/24 11:42:36;;;;;;;15.07;11.80;;;;;;;;;;4991529;28;20464;-86
2023/05/24 11:45:03;;;;;;;17.17;10.67;;;;;;;;;;4995829;28;20488;-86
2023/05/24 11:47:29;;;;;;;20.83;16.60;;;;;;;;;;4994726;28;20463;-85
2023/05/24 11:49:55;;;;;;;11.50;5.77;;;;;;;;;;4983150;28;20461;-87
2023/05/24 11:52:21;;;;;;;11.13;6.40;;;;;;;;;;4992709;28;20448;-84
2023/05/24 11:54:50;;;;;;;9.43;8.63;;;;;;;;;;5007267;28;20508;-83
2023/05/24 11:57:18;;;;;;;9.20;8.30;;;;;;;;;;4995076;28;20449;-86
2023/05/24 11:59:44;;;;;;;9.47;7.70;;;;;;;;;;5002249;28;20918;-85
2023/05/24 12:02:10;;;;;;;15.70;9.20;;;;;;;;;;4992441;28;21002;-85
2023/05/24 12:04:36;;;;;;;11.37;6.60;;;;;;;;;;4995461;28;20702;-83
2023/05/24 12:07:02;;;;;;;11.87;6.20;;;;;;;;;;5005860;28;20438;-85
2023/05/24 12:09:28;;;;;;;6.30;5.70;;;;;;;;;;4998801;28;20480;-84
2023/05/24 12:11:56;;;;;;;7.63;6.60;;;;;;;;;;4998117;28;20444;-85
2023/05/24 12:14:25;;;;;;;11.00;8.17;;;;;;;;;;4988817;28;20432;-84
2023/05/24 12:16:54;;;;;;;6.50;6.10;;;;;;;;;;4994956;28;20544;-79
2023/05/24 12:19:21;;;;;;;11.23;6.20;;;;;;;;;;4978225;28;20461;-78
2023/05/24 12:21:51;;;;;;;7.33;6.27;;;;;;;;;;4981373;28;20416;-80
2023/05/24 12:24:20;;;;;;;8.30;7.60;;;;;;;;;;4982198;28;20978;-77
2023/05/24 12:26:47;;;;;;;6.37;5.10;;;;;;;;;;4983595;28;20496;-79
2023/05/24 12:29:13;;;;;;;7.67;6.60;;;;;;;;;;4984628;28;20467;-83
2023/05/24 12:31:41;;;;;;;13.53;6.20;;;;;;;;;;4993504;28;20873;-86
2023/05/24 12:34:10;;;;;;;7.30;6.43;;;;;;;;;;4991847;28;20963;-81
2023/05/24 12:36:37;;;;;;;12.13;6.23;;;;;;;;;;4993679;28;20481;-88
2023/05/24 12:39:33;;;;;;;9.47;6.23;;;;;;;;;;4982608;28;20943;-84
2023/05/24 12:42:02;;;;;;;6.80;6.20;;;;;;;;;;4978724;28;20417;-86
2023/05/24 12:44:34;;;;;;;8.40;6.37;;;;;;;;;;4983661;28;20445;-86
2023/05/24 12:47:01;;;;;;;11.33;8.57;;;;;;;;;;4985829;28;20805;-83
2023/05/24 12:49:27;;;;;;;15.40;6.23;;;;;;;;;;4985404;28;20492;-84
2023/05/24 12:51:55;;;;;;;10.43;8.37;;;;;;;;;;4994896;28;20401;-86
2023/05/24 12:54:27;;;;;;;14.30;8.87;;;;;;;;;;5008954;28;20483;-84
2023/05/24 12:56:54;;;;;;;12.07;7.70;;;;;;;;;;5012763;28;20475;-84
2023/05/24 12:59:21;;;;;;;10.30;8.30;;;;;;;;;;4995002;28;20938;-82
2023/05/24 13:01:50;;;;;;;14.37;7.33;;;;;;;;;;4986656;28;20448;-85
2023/05/24 13:04:20;;;;;;;7.20;6.50;;;;;;;;;;4982506;28;20489;-86
2023/05/24 13:06:46;;;;;;;16.63;8.43;;;;;;;;;;4995076;28;20412;-83
2023/05/24 13:09:13;;;;;;;12.00;7.40;;;;;;;;;;4981387;28;21035;-86
2023/05/24 13:11:39;;;;;;;12.10;7.60;;;;;;;;;;4986489;28;20939;-87
2023/05/24 13:14:06;;;;;;;11.20;7.20;;;;;;;;;;4988016;28;20973;-84
2023/05/24 13:16:34;;;;;;;15.40;9.77;;;;;;;;;;4989463;28;20767;-80
2023/05/24 13:19:01;;;;;;;11.77;8.43;;;;;;;;;;5012724;22;20505;-91
2023/05/24 13:21:28;;;;;;;13.53;9.00;;;;;;;;;;5033782;28;20546;-89
2023/05/24 13:23:55;;;;;;;14.77;8.50;;;;;;;;;;5037946;28;20433;-92
2023/05/24 13:26:23;;;;;;;15.23;11.20;;;;;;;;;;5048067;28;20418;-89
2023/05/24 13:28:49;;;;;;;11.83;9.77;;;;;;;;;;5036957;28;20473;-90
2023/05/24 13:31:17;;;;;;;18.80;11.07;;;;;;;;;;5051668;28;20426;-91
2023/05/24 13:33:43;;;;;;;13.77;8.90;;;;;;;;;;5073394;28;20488;-93
2023/05/24 13:36:09;;;;;;;10.63;7.93;;;;;;;;;;5040254;28;20433;-89
2023/05/24 13:38:36;;;;;;;11.63;8.63;;;;;;;;;;5038897;28;20465;-91
2023/05/24 13:41:02;;;;;;;9.53;8.67;;;;;;;;;;5050840;28;20444;-91
2023/05/24 13:43:28;;;;;;;8.03;7.30;;;;;;;;;;5049792;28;20964;-91
2023/05/24 13:45:54;;;;;;;10.40;9.40;;;;;;;;;;5032580;28;20542;-91
2023/05/24 13:48:20;;;;;;;10.50;9.10;;;;;;;;;;5032456;28;20437;-92
2023/05/24 13:50:47;;;;;;;9.40;8.00;;;;;;;;;;5068268;28;20468;-91
2023/05/24 13:53:13;;;;;;;11.47;8.03;;;;;;;;;;5048700;28;20433;-89
2023/05/24 13:55:39;;;;;;;9.20;8.30;;;;;;;;;;5061569;28;20454;-90
2023/05/24 13:58:05;;;;;;;10.40;8.27;;;;;;;;;;5035847;28;20469;-90
2023/05/24 14:00:37;;;;;;;8.60;7.90;;;;;;;;;;5051072;28;20574;-90
2023/05/24 14:03:04;;;;;;;17.63;9.03;;;;;;;;;;5046159;28;20457;-90
2023/05/24 14:05:31;;;;;;;11.27;7.13;;;;;;;;;;5063375;28;21018;-91
2023/05/24 14:08:02;;;;;;;10.03;7.60;;;;;;;;;;5041539;28;20464;-90
2023/05/24 14:10:31;;;;;;;13.43;8.10;;;;;;;;;;5042002;28;20425;-91
2023/05/24 14:12:58;;;;;;;9.57;7.20;;;;;;;;;;5039058;28;20472;-91
2023/05/24 14:15:24;;;;;;;10.67;8.20;;;;;;;;;;5041513;28;20446;-91
2023/05/24 14:17:50;;;;;;;10.93;9.20;;;;;;;;;;5045986;28;20456;-92
2023/05/24 14:20:16;;;;;;;13.30;9.23;;;;;;;;;;5046538;28;20964;-92
2023/05/24 14:22:42;;;;;;;11.20;9.33;;;;;;;;;;5053261;28;20425;-90
2023/05/24 14:25:10;;;;;;;14.77;9.80;;;;;;;;;;5058254;28;20636;-90
2023/05/24 14:27:44;;;;;;;9.07;7.63;;;;;;;;;;5040974;28;20909;-93
2023/05/24 14:30:10;;;;;;;13.60;8.83;;;;;;;;;;5025825;28;20446;-92
2023/05/24 14:32:37;;;;;;;13.63;7.90;;;;;;;;;;5030735;28;20534;-90